sensor_id;sensor_type;location;lat;lon;timestamp;temperature;humidity
18317;DHT22;9284;52.298;21.164;2022-07-03T03:14:54;14.50;99.90
18317;DHT22;9284;52.298;21.164;2022-07-03T03:17:36;14.50;99.90
18317;DHT22;9284;52.298;21.164;2022-07-03T03:20:06;14.50;99.90
18317;DHT22;9284;52.298;21.164;2022-07-03T03:22:45;14.50;99.90
18317;DHT22;9284;52.298;21.164;2022-07-03T03:25:20;14.60;99.90
18317;DHT22;9284;52.298;21.164;2022-07-03T03:27:48;14.60;99.90
18317;DHT22;9284;52.298;21.164;2022-07-03T03:30:17;14.60;99.90
18317;DHT22;9284;52.298;21.164;2022-07-03T03:32:45;14.60;99.90
18317;DHT22;9284;52.298;21.164;2022-07-03T03:35:14;14.70;99.90
18317;DHT22;9284;52.298;21.164;2022-07-03T03:37:42;14.70;99.90
18317;DHT22;9284;52.298;21.164;2022-07-03T03:40:11;14.90;99.90
18317;DHT22;9284;52.298;21.164;2022-07-03T03:42:40;15.00;99.90
18317;DHT22;9284;52.298;21.164;2022-07-03T03:45:09;15.20;99.90
18317;DHT22;9284;52.298;21.164;2022-07-03T03:47:39;15.40;99.90
18317;DHT22;9284;52.298;21.164;2022-07-03T03:50:08;15.50;99.90
18317;DHT22;9284;52.298;21.164;2022-07-03T03:52:36;15.60;99.90
18317;DHT22;9284;52.298;21.164;2022-07-03T03:55:05;15.70;99.90
18317;DHT22;9284;52.298;21.164;2022-07-03T03:57:36;15.70;99.90
18317;DHT22;9284;52.298;21.164;2022-07-03T04:00:05;15.70;99.90
18317;DHT22;9284;52.298;21.164;2022-07-03T04:02:41;15.70;99.90
18317;DHT22;9284;52.298;21.164;2022-07-03T04:05:09;15.80;99.90
18317;DHT22;9284;52.298;21.164;2022-07-03T04:07:37;15.80;99.90
18317;DHT22;9284;52.298;21.164;2022-07-03T04:10:06;15.90;99.90
18317;DHT22;9284;52.298;21.164;2022-07-03T04:12:34;16.00;99.90
18317;DHT22;9284;52.298;21.164;2022-07-03T04:15:03;16.00;99.90
18317;DHT22;9284;52.298;21.164;2022-07-03T04:17:31;16.20;99.90
18317;DHT22;9284;52.298;21.164;2022-07-03T04:20:01;16.20;99.90
18317;DHT22;9284;52.298;21.164;2022-07-03T04:22:29;16.30;99.90
18317;DHT22;9284;52.298;21.164;2022-07-03T04:24:57;16.50;99.90
18317;DHT22;9284;52.298;21.164;2022-07-03T04:27:25;16.40;99.90
18317;DHT22;9284;52.298;21.164;2022-07-03T04:30:14;16.50;99.90
18317;DHT22;9284;52.298;21.164;2022-07-03T04:32:42;16.60;99.90
18317;DHT22;9284;52.298;21.164;2022-07-03T04:35:12;16.40;99.90
18317;DHT22;9284;52.298;21.164;2022-07-03T04:37:41;16.60;99.90
18317;DHT22;9284;52.298;21.164;2022-07-03T04:40:10;16.60;99.90
18317;DHT22;9284;52.298;21.164;2022-07-03T04:42:38;16.60;99.90
18317;DHT22;9284;52.298;21.164;2022-07-03T04:45:09;16.70;99.90
18317;DHT22;9284;52.298;21.164;2022-07-03T04:47:37;16.70;99.90
18317;DHT22;9284;52.298;21.164;2022-07-03T04:50:07;16.80;99.90
18317;DHT22;9284;52.298;21.164;2022-07-03T04:52:37;17.10;99.90
18317;DHT22;9284;52.298;21.164;2022-07-03T04:55:06;17.20;99.90
18317;DHT22;9284;52.298;21.164;2022-07-03T04:57:37;17.20;99.90
18317;DHT22;9284;52.298;21.164;2022-07-03T05:00:06;17.30;99.90
18317;DHT22;9284;52.298;21.164;2022-07-03T05:02:35;17.30;99.90
18317;DHT22;9284;52.298;21.164;2022-07-03T05:05:04;17.30;99.90
18317;DHT22;9284;52.298;21.164;2022-07-03T05:07:33;17.30;99.90
18317;DHT22;9284;52.298;21.164;2022-07-03T05:10:03;17.30;99.90
18317;DHT22;9284;52.298;21.164;2022-07-03T05:12:34;17.30;99.90
18317;DHT22;9284;52.298;21.164;2022-07-03T05:15:08;17.30;99.90
18317;DHT22;9284;52.298;21.164;2022-07-03T05:17:38;17.30;99.90
18317;DHT22;9284;52.298;21.164;2022-07-03T05:20:08;17.40;99.90
18317;DHT22;9284;52.298;21.164;2022-07-03T05:22:54;17.40;99.90
18317;DHT22;9284;52.298;21.164;2022-07-03T05:25:25;17.40;99.90
18317;DHT22;9284;52.298;21.164;2022-07-03T05:27:54;17.40;99.90
18317;DHT22;9284;52.298;21.164;2022-07-03T05:30:23;17.40;99.90
18317;DHT22;9284;52.298;21.164;2022-07-03T05:32:54;17.50;99.90
18317;DHT22;9284;52.298;21.164;2022-07-03T05:35:22;17.60;99.90
18317;DHT22;9284;52.298;21.164;2022-07-03T05:37:51;17.60;99.90
18317;DHT22;9284;52.298;21.164;2022-07-03T05:40:19;17.70;99.90
18317;DHT22;9284;52.298;21.164;2022-07-03T05:42:49;17.70;99.90
18317;DHT22;9284;52.298;21.164;2022-07-03T05:45:19;17.80;99.90
18317;DHT22;9284;52.298;21.164;2022-07-03T05:47:47;18.00;99.90
18317;DHT22;9284;52.298;21.164;2022-07-03T05:50:15;18.10;99.90
18317;DHT22;9284;52.298;21.164;2022-07-03T05:52:44;18.10;99.90
18317;DHT22;9284;52.298;21.164;2022-07-03T05:55:12;18.30;99.90
18317;DHT22;9284;52.298;21.164;2022-07-03T05:57:40;18.30;99.90
18317;DHT22;9284;52.298;21.164;2022-07-03T06:00:12;18.30;99.90
18317;DHT22;9284;52.298;21.164;2022-07-03T06:02:40;18.40;99.90
18317;DHT22;9284;52.298;21.164;2022-07-03T06:05:09;18.40;99.90
18317;DHT22;9284;52.298;21.164;2022-07-03T06:07:37;18.50;99.90
18317;DHT22;9284;52.298;21.164;2022-07-03T06:10:06;18.60;99.90
18317;DHT22;9284;52.298;21.164;2022-07-03T06:12:35;18.60;99.90
18317;DHT22;9284;52.298;21.164;2022-07-03T06:15:04;18.70;99.90
18317;DHT22;9284;52.298;21.164;2022-07-03T06:17:36;19.10;99.90
18317;DHT22;9284;52.298;21.164;2022-07-03T06:20:06;19.30;99.90
18317;DHT22;9284;52.298;21.164;2022-07-03T06:22:36;19.80;99.90
18317;DHT22;9284;52.298;21.164;2022-07-03T06:25:05;20.40;99.90
18317;DHT22;9284;52.298;21.164;2022-07-03T06:27:33;21.10;99.90
18317;DHT22;9284;52.298;21.164;2022-07-03T06:30:05;21.90;99.90
18317;DHT22;9284;52.298;21.164;2022-07-03T06:32:35;22.80;99.90
18317;DHT22;9284;52.298;21.164;2022-07-03T06:35:04;23.70;99.90
18317;DHT22;9284;52.298;21.164;2022-07-03T06:37:33;24.00;99.90
18317;DHT22;9284;52.298;21.164;2022-07-03T06:40:01;24.10;99.90
18317;DHT22;9284;52.298;21.164;2022-07-03T06:42:29;24.30;99.90
18317;DHT22;9284;52.298;21.164;2022-07-03T06:44:58;24.70;99.90
18317;DHT22;9284;52.298;21.164;2022-07-03T06:47:26;25.30;99.90
18317;DHT22;9284;52.298;21.164;2022-07-03T06:49:55;25.10;99.90
18317;DHT22;9284;52.298;21.164;2022-07-03T06:52:24;25.30;99.90
18317;DHT22;9284;52.298;21.164;2022-07-03T06:54:53;25.60;99.10
18317;DHT22;9284;52.298;21.164;2022-07-03T06:57:21;25.30;99.00
18317;DHT22;9284;52.298;21.164;2022-07-03T06:59:49;25.50;98.80
18317;DHT22;9284;52.298;21.164;2022-07-03T07:02:18;25.80;98.10
18317;DHT22;9284;52.298;21.164;2022-07-03T07:04:46;25.70;98.20
18317;DHT22;9284;52.298;21.164;2022-07-03T07:07:16;25.60;97.40
18317;DHT22;9284;52.298;21.164;2022-07-03T07:09:44;25.70;97.60
18317;DHT22;9284;52.298;21.164;2022-07-03T07:12:13;25.70;97.00
18317;DHT22;9284;52.298;21.164;2022-07-03T07:14:41;25.60;97.70
18317;DHT22;9284;52.298;21.164;2022-07-03T07:17:11;26.40;97.20
18317;DHT22;9284;52.298;21.164;2022-07-03T07:19:39;26.60;96.50
18317;DHT22;9284;52.298;21.164;2022-07-03T07:22:08;26.40;95.60
18317;DHT22;9284;52.298;21.164;2022-07-03T07:24:37;26.50;94.60
18317;DHT22;9284;52.298;21.164;2022-07-03T07:27:07;26.10;94.90
18317;DHT22;9284;52.298;21.164;2022-07-03T07:29:35;26.30;95.60
18317;DHT22;9284;52.298;21.164;2022-07-03T07:32:04;26.80;94.80
18317;DHT22;9284;52.298;21.164;2022-07-03T07:34:32;27.50;94.20
18317;DHT22;9284;52.298;21.164;2022-07-03T07:37:01;27.40;92.60
18317;DHT22;9284;52.298;21.164;2022-07-03T07:39:29;27.90;91.90
18317;DHT22;9284;52.298;21.164;2022-07-03T07:41:58;28.50;89.60
18317;DHT22;9284;52.298;21.164;2022-07-03T07:44:27;26.60;91.60
18317;DHT22;9284;52.298;21.164;2022-07-03T07:46:55;27.50;90.90
18317;DHT22;9284;52.298;21.164;2022-07-03T07:49:23;27.50;91.60
18317;DHT22;9284;52.298;21.164;2022-07-03T07:51:51;27.70;91.20
18317;DHT22;9284;52.298;21.164;2022-07-03T07:54:19;27.90;91.50
18317;DHT22;9284;52.298;21.164;2022-07-03T07:56:47;27.50;90.00
18317;DHT22;9284;52.298;21.164;2022-07-03T07:59:17;27.70;88.70
18317;DHT22;9284;52.298;21.164;2022-07-03T08:01:45;27.90;88.00
18317;DHT22;9284;52.298;21.164;2022-07-03T08:04:31;28.20;88.30
18317;DHT22;9284;52.298;21.164;2022-07-03T08:07:16;28.60;83.90
18317;DHT22;9284;52.298;21.164;2022-07-03T08:09:44;28.20;86.10
18317;DHT22;9284;52.298;21.164;2022-07-03T08:12:13;28.30;83.60
18317;DHT22;9284;52.298;21.164;2022-07-03T08:14:42;28.60;84.30
18317;DHT22;9284;52.298;21.164;2022-07-03T08:17:11;28.40;83.60
18317;DHT22;9284;52.298;21.164;2022-07-03T08:19:39;28.50;83.00
18317;DHT22;9284;52.298;21.164;2022-07-03T08:22:08;28.60;87.40
18317;DHT22;9284;52.298;21.164;2022-07-03T08:24:36;28.50;82.30
18317;DHT22;9284;52.298;21.164;2022-07-03T08:27:10;28.40;80.30
18317;DHT22;9284;52.298;21.164;2022-07-03T08:29:38;28.70;82.20
18317;DHT22;9284;52.298;21.164;2022-07-03T08:32:08;28.40;80.40
18317;DHT22;9284;52.298;21.164;2022-07-03T08:34:37;28.80;80.60
18317;DHT22;9284;52.298;21.164;2022-07-03T08:37:05;29.10;79.90
18317;DHT22;9284;52.298;21.164;2022-07-03T08:39:34;29.60;83.10
18317;DHT22;9284;52.298;21.164;2022-07-03T08:42:02;29.40;81.40
18317;DHT22;9284;52.298;21.164;2022-07-03T08:44:32;29.30;79.30
18317;DHT22;9284;52.298;21.164;2022-07-03T08:47:03;29.40;79.90
18317;DHT22;9284;52.298;21.164;2022-07-03T08:49:37;29.70;81.70
18317;DHT22;9284;52.298;21.164;2022-07-03T08:52:07;29.20;78.80
18317;DHT22;9284;52.298;21.164;2022-07-03T08:54:37;29.50;77.80
18317;DHT22;9284;52.298;21.164;2022-07-03T08:57:07;29.10;77.40
18317;DHT22;9284;52.298;21.164;2022-07-03T08:59:37;29.00;77.30
18317;DHT22;9284;52.298;21.164;2022-07-03T09:02:06;29.00;78.70
18317;DHT22;9284;52.298;21.164;2022-07-03T09:04:37;29.40;77.80
18317;DHT22;9284;52.298;21.164;2022-07-03T09:07:08;28.80;81.10
18317;DHT22;9284;52.298;21.164;2022-07-03T09:09:38;29.20;78.80
18317;DHT22;9284;52.298;21.164;2022-07-03T09:12:08;29.00;77.40
18317;DHT22;9284;52.298;21.164;2022-07-03T09:14:36;29.40;75.30
18317;DHT22;9284;52.298;21.164;2022-07-03T09:17:06;29.80;75.50
18317;DHT22;9284;52.298;21.164;2022-07-03T09:19:44;28.70;75.80
18317;DHT22;9284;52.298;21.164;2022-07-03T09:22:20;29.20;76.70
18317;DHT22;9284;52.298;21.164;2022-07-03T09:24:50;29.30;75.20
18317;DHT22;9284;52.298;21.164;2022-07-03T09:27:23;29.00;75.80
18317;DHT22;9284;52.298;21.164;2022-07-03T09:29:57;29.30;74.80
18317;DHT22;9284;52.298;21.164;2022-07-03T09:32:31;28.40;74.10
18317;DHT22;9284;52.298;21.164;2022-07-03T09:35:18;28.70;74.90
18317;DHT22;9284;52.298;21.164;2022-07-03T09:37:52;28.60;74.60
18317;DHT22;9284;52.298;21.164;2022-07-03T09:40:21;29.20;74.70
18317;DHT22;9284;52.298;21.164;2022-07-03T09:43:00;29.20;73.90
18317;DHT22;9284;52.298;21.164;2022-07-03T09:45:49;29.00;75.50
18317;DHT22;9284;52.298;21.164;2022-07-03T09:48:26;28.60;73.90
18317;DHT22;9284;52.298;21.164;2022-07-03T09:51:25;28.50;77.80
18317;DHT22;9284;52.298;21.164;2022-07-03T09:53:55;28.00;74.50
18317;DHT22;9284;52.298;21.164;2022-07-03T09:56:26;28.50;75.10
18317;DHT22;9284;52.298;21.164;2022-07-03T09:59:06;28.50;76.10
18317;DHT22;9284;52.298;21.164;2022-07-03T10:01:36;28.70;76.20
18317;DHT22;9284;52.298;21.164;2022-07-03T10:04:11;28.70;78.40
18317;DHT22;9284;52.298;21.164;2022-07-03T10:06:48;29.10;77.80
18317;DHT22;9284;52.298;21.164;2022-07-03T10:09:18;28.80;76.40
18317;DHT22;9284;52.298;21.164;2022-07-03T10:11:47;28.70;74.10
18317;DHT22;9284;52.298;21.164;2022-07-03T10:14:16;28.70;75.40
18317;DHT22;9284;52.298;21.164;2022-07-03T10:16:46;28.40;75.80
18317;DHT22;9284;52.298;21.164;2022-07-03T10:19:18;27.80;77.70
18317;DHT22;9284;52.298;21.164;2022-07-03T10:21:53;28.00;76.50
18317;DHT22;9284;52.298;21.164;2022-07-03T10:24:23;28.10;79.30
18317;DHT22;9284;52.298;21.164;2022-07-03T10:26:53;27.80;76.40
18317;DHT22;9284;52.298;21.164;2022-07-03T10:29:22;28.00;77.50
18317;DHT22;9284;52.298;21.164;2022-07-03T10:31:56;28.10;77.00
18317;DHT22;9284;52.298;21.164;2022-07-03T10:34:25;27.90;76.10
18317;DHT22;9284;52.298;21.164;2022-07-03T10:36:58;28.20;76.20
18317;DHT22;9284;52.298;21.164;2022-07-03T10:39:37;28.70;80.00
18317;DHT22;9284;52.298;21.164;2022-07-03T10:42:10;29.50;75.60
18317;DHT22;9284;52.298;21.164;2022-07-03T10:45:07;29.40;76.10
18317;DHT22;9284;52.298;21.164;2022-07-03T10:47:37;29.20;77.90
18317;DHT22;9284;52.298;21.164;2022-07-03T10:50:08;29.00;78.90
18317;DHT22;9284;52.298;21.164;2022-07-03T10:52:39;28.80;75.50
18317;DHT22;9284;52.298;21.164;2022-07-03T10:55:07;28.70;75.80
18317;DHT22;9284;52.298;21.164;2022-07-03T10:57:36;28.50;75.90
18317;DHT22;9284;52.298;21.164;2022-07-03T11:00:17;27.70;75.40
18317;DHT22;9284;52.298;21.164;2022-07-03T11:02:48;27.90;77.80
18317;DHT22;9284;52.298;21.164;2022-07-03T11:05:25;27.70;77.70
18317;DHT22;9284;52.298;21.164;2022-07-03T11:08:11;27.70;79.10
18317;DHT22;9284;52.298;21.164;2022-07-03T11:10:40;28.10;78.00
18317;DHT22;9284;52.298;21.164;2022-07-03T11:13:19;28.20;78.00
18317;DHT22;9284;52.298;21.164;2022-07-03T11:15:51;28.80;76.50
18317;DHT22;9284;52.298;21.164;2022-07-03T11:18:28;28.40;77.50
18317;DHT22;9284;52.298;21.164;2022-07-03T11:21:28;28.70;77.90
18317;DHT22;9284;52.298;21.164;2022-07-03T11:24:21;28.10;78.90
18317;DHT22;9284;52.298;21.164;2022-07-03T11:27:14;28.60;79.10
18317;DHT22;9284;52.298;21.164;2022-07-03T11:29:53;28.30;79.50
18317;DHT22;9284;52.298;21.164;2022-07-03T11:32:44;27.80;78.90
18317;DHT22;9284;52.298;21.164;2022-07-03T11:35:48;27.50;80.10
18317;DHT22;9284;52.298;21.164;2022-07-03T11:38:21;26.70;80.60
18317;DHT22;9284;52.298;21.164;2022-07-03T11:40:53;25.90;81.80
18317;DHT22;9284;52.298;21.164;2022-07-03T11:43:22;25.60;84.20
18317;DHT22;9284;52.298;21.164;2022-07-03T11:45:50;25.60;87.00
18317;DHT22;9284;52.298;21.164;2022-07-03T11:48:20;25.70;86.00
18317;DHT22;9284;52.298;21.164;2022-07-03T11:50:50;26.10;85.60
18317;DHT22;9284;52.298;21.164;2022-07-03T11:53:20;26.80;85.60
18317;DHT22;9284;52.298;21.164;2022-07-03T11:55:54;26.80;81.40
18317;DHT22;9284;52.298;21.164;2022-07-03T11:58:23;27.10;82.30
18317;DHT22;9284;52.298;21.164;2022-07-03T12:00:51;27.20;82.90
18317;DHT22;9284;52.298;21.164;2022-07-03T12:03:23;26.40;82.10
18317;DHT22;9284;52.298;21.164;2022-07-03T12:05:54;26.20;82.00
18317;DHT22;9284;52.298;21.164;2022-07-03T12:08:27;26.00;84.70
18317;DHT22;9284;52.298;21.164;2022-07-03T12:10:59;26.50;84.50
18317;DHT22;9284;52.298;21.164;2022-07-03T12:13:29;27.00;84.00
18317;DHT22;9284;52.298;21.164;2022-07-03T12:16:07;27.40;83.40
18317;DHT22;9284;52.298;21.164;2022-07-03T12:18:43;27.00;79.60
18317;DHT22;9284;52.298;21.164;2022-07-03T12:21:12;26.80;84.20
18317;DHT22;9284;52.298;21.164;2022-07-03T12:23:46;26.60;83.90
18317;DHT22;9284;52.298;21.164;2022-07-03T12:26:27;26.50;83.20
18317;DHT22;9284;52.298;21.164;2022-07-03T12:28:59;26.10;84.80
18317;DHT22;9284;52.298;21.164;2022-07-03T12:31:28;26.20;83.20
18317;DHT22;9284;52.298;21.164;2022-07-03T12:33:57;26.40;84.10
18317;DHT22;9284;52.298;21.164;2022-07-03T12:36:27;26.50;84.00
18317;DHT22;9284;52.298;21.164;2022-07-03T12:38:57;26.80;82.30
18317;DHT22;9284;52.298;21.164;2022-07-03T12:41:28;26.80;84.40
18317;DHT22;9284;52.298;21.164;2022-07-03T12:43:58;26.90;85.00
18317;DHT22;9284;52.298;21.164;2022-07-03T12:46:33;26.60;84.50
18317;DHT22;9284;52.298;21.164;2022-07-03T12:49:08;26.50;85.90
18317;DHT22;9284;52.298;21.164;2022-07-03T12:51:39;26.30;86.80
18317;DHT22;9284;52.298;21.164;2022-07-03T12:54:09;26.40;86.90
18317;DHT22;9284;52.298;21.164;2022-07-03T12:56:39;26.40;85.40
18317;DHT22;9284;52.298;21.164;2022-07-03T12:59:26;26.70;87.70
18317;DHT22;9284;52.298;21.164;2022-07-03T13:02:01;27.20;85.10
18317;DHT22;9284;52.298;21.164;2022-07-03T13:04:31;27.00;86.20
18317;DHT22;9284;52.298;21.164;2022-07-03T13:07:00;27.00;85.00
18317;DHT22;9284;52.298;21.164;2022-07-03T13:09:29;27.30;85.20
18317;DHT22;9284;52.298;21.164;2022-07-03T13:11:58;27.10;84.60
18317;DHT22;9284;52.298;21.164;2022-07-03T13:14:27;27.00;85.50
18317;DHT22;9284;52.298;21.164;2022-07-03T13:16:56;27.10;83.60
18317;DHT22;9284;52.298;21.164;2022-07-03T13:19:27;27.50;85.40
18317;DHT22;9284;52.298;21.164;2022-07-03T13:21:57;27.30;84.50
18317;DHT22;9284;52.298;21.164;2022-07-03T13:24:26;27.70;84.70
18317;DHT22;9284;52.298;21.164;2022-07-03T13:26:54;27.60;85.00
18317;DHT22;9284;52.298;21.164;2022-07-03T13:29:24;27.30;84.40
18317;DHT22;9284;52.298;21.164;2022-07-03T13:31:53;27.10;86.10
18317;DHT22;9284;52.298;21.164;2022-07-03T13:34:22;27.30;86.60
18317;DHT22;9284;52.298;21.164;2022-07-03T13:36:50;27.50;85.20
18317;DHT22;9284;52.298;21.164;2022-07-03T13:39:19;27.20;86.60
18317;DHT22;9284;52.298;21.164;2022-07-03T13:41:47;27.10;86.20
18317;DHT22;9284;52.298;21.164;2022-07-03T13:44:16;27.30;87.10
18317;DHT22;9284;52.298;21.164;2022-07-03T13:46:46;27.50;86.50
18317;DHT22;9284;52.298;21.164;2022-07-03T13:49:18;27.60;87.30
18317;DHT22;9284;52.298;21.164;2022-07-03T13:51:47;27.40;86.70
18317;DHT22;9284;52.298;21.164;2022-07-03T13:54:15;27.00;87.60
18317;DHT22;9284;52.298;21.164;2022-07-03T13:56:44;26.70;89.90
18317;DHT22;9284;52.298;21.164;2022-07-03T13:59:12;26.50;88.70
18317;DHT22;9284;52.298;21.164;2022-07-03T14:01:41;26.30;90.30
18317;DHT22;9284;52.298;21.164;2022-07-03T14:04:11;26.10;90.10
18317;DHT22;9284;52.298;21.164;2022-07-03T14:06:39;25.90;90.10
18317;DHT22;9284;52.298;21.164;2022-07-03T14:09:07;25.50;91.40
18317;DHT22;9284;52.298;21.164;2022-07-03T14:11:36;25.20;90.90
18317;DHT22;9284;52.298;21.164;2022-07-03T14:14:04;25.10;91.50
18317;DHT22;9284;52.298;21.164;2022-07-03T14:16:33;25.10;91.80
18317;DHT22;9284;52.298;21.164;2022-07-03T14:19:01;25.20;92.00
18317;DHT22;9284;52.298;21.164;2022-07-03T14:21:34;25.30;92.30
18317;DHT22;9284;52.298;21.164;2022-07-03T14:24:03;25.50;92.50
18317;DHT22;9284;52.298;21.164;2022-07-03T14:26:31;25.70;92.40
18317;DHT22;9284;52.298;21.164;2022-07-03T14:29:28;25.90;91.60
18317;DHT22;9284;52.298;21.164;2022-07-03T14:32:14;26.20;92.40
18317;DHT22;9284;52.298;21.164;2022-07-03T14:34:58;26.20;92.30
18317;DHT22;9284;52.298;21.164;2022-07-03T14:37:29;26.30;92.20
18317;DHT22;9284;52.298;21.164;2022-07-03T14:39:57;26.40;92.40
18317;DHT22;9284;52.298;21.164;2022-07-03T14:42:26;26.40;92.70
18317;DHT22;9284;52.298;21.164;2022-07-03T14:44:54;26.10;93.20
18317;DHT22;9284;52.298;21.164;2022-07-03T14:47:22;26.00;94.20
18317;DHT22;9284;52.298;21.164;2022-07-03T14:49:50;25.90;96.00
18317;DHT22;9284;52.298;21.164;2022-07-03T14:52:18;25.60;97.80
18317;DHT22;9284;52.298;21.164;2022-07-03T14:54:48;25.50;98.70
18317;DHT22;9284;52.298;21.164;2022-07-03T14:57:25;25.30;99.40
18317;DHT22;9284;52.298;21.164;2022-07-03T15:00:03;25.10;99.90
18317;DHT22;9284;52.298;21.164;2022-07-03T15:02:38;25.00;99.90
18317;DHT22;9284;52.298;21.164;2022-07-03T15:05:09;25.00;99.90
18317;DHT22;9284;52.298;21.164;2022-07-03T15:07:38;24.90;99.90
18317;DHT22;9284;52.298;21.164;2022-07-03T15:10:10;24.80;99.90
18317;DHT22;9284;52.298;21.164;2022-07-03T15:12:42;24.70;99.90
18317;DHT22;9284;52.298;21.164;2022-07-03T15:15:12;24.70;99.90
18317;DHT22;9284;52.298;21.164;2022-07-03T15:17:42;24.60;99.90
18317;DHT22;9284;52.298;21.164;2022-07-03T15:20:13;24.50;99.90
18317;DHT22;9284;52.298;21.164;2022-07-03T15:22:43;24.50;99.90
18317;DHT22;9284;52.298;21.164;2022-07-03T15:25:17;24.50;99.90
18317;DHT22;9284;52.298;21.164;2022-07-03T15:27:48;24.40;99.90
18317;DHT22;9284;52.298;21.164;2022-07-03T15:30:19;24.40;99.90
18317;DHT22;9284;52.298;21.164;2022-07-03T15:32:48;24.20;99.90
18317;DHT22;9284;52.298;21.164;2022-07-03T15:35:17;24.20;99.90
18317;DHT22;9284;52.298;21.164;2022-07-03T15:38:05;24.10;99.90
18317;DHT22;9284;52.298;21.164;2022-07-03T15:40:40;24.00;99.90
18317;DHT22;9284;52.298;21.164;2022-07-03T15:43:25;24.10;99.90
18317;DHT22;9284;52.298;21.164;2022-07-03T15:45:58;24.10;99.90
18317;DHT22;9284;52.298;21.164;2022-07-03T15:48:34;24.10;99.90
18317;DHT22;9284;52.298;21.164;2022-07-03T15:51:15;24.00;99.90
18317;DHT22;9284;52.298;21.164;2022-07-03T15:53:49;24.30;99.90
18317;DHT22;9284;52.298;21.164;2022-07-03T15:56:25;24.30;99.90
18317;DHT22;9284;52.298;21.164;2022-07-03T15:58:59;24.40;99.90
18317;DHT22;9284;52.298;21.164;2022-07-03T16:01:29;24.50;99.90
18317;DHT22;9284;52.298;21.164;2022-07-03T16:04:27;24.60;99.90
18317;DHT22;9284;52.298;21.164;2022-07-03T16:06:56;24.60;99.90
18317;DHT22;9284;52.298;21.164;2022-07-03T16:09:27;24.40;99.90
18317;DHT22;9284;52.298;21.164;2022-07-03T16:11:57;24.40;99.90
18317;DHT22;9284;52.298;21.164;2022-07-03T16:14:29;24.40;99.90
18317;DHT22;9284;52.298;21.164;2022-07-03T16:17:02;24.30;99.90
18317;DHT22;9284;52.298;21.164;2022-07-03T16:19:31;24.40;99.90
18317;DHT22;9284;52.298;21.164;2022-07-03T16:22:00;24.40;99.90
18317;DHT22;9284;52.298;21.164;2022-07-03T16:24:35;24.40;99.90
18317;DHT22;9284;52.298;21.164;2022-07-03T16:27:05;24.30;99.90
18317;DHT22;9284;52.298;21.164;2022-07-03T16:29:36;24.20;99.90
18317;DHT22;9284;52.298;21.164;2022-07-03T16:32:06;24.10;99.90
18317;DHT22;9284;52.298;21.164;2022-07-03T16:34:38;24.00;99.90
18317;DHT22;9284;52.298;21.164;2022-07-03T16:37:13;23.80;99.90
18317;DHT22;9284;52.298;21.164;2022-07-03T16:39:45;23.80;99.90
18317;DHT22;9284;52.298;21.164;2022-07-03T16:42:18;23.70;99.90
18317;DHT22;9284;52.298;21.164;2022-07-03T16:44:48;23.60;99.90
18317;DHT22;9284;52.298;21.164;2022-07-03T16:47:17;23.60;99.90
18317;DHT22;9284;52.298;21.164;2022-07-03T16:49:48;23.50;99.90
18317;DHT22;9284;52.298;21.164;2022-07-03T16:52:21;23.50;99.90
18317;DHT22;9284;52.298;21.164;2022-07-03T16:54:51;23.50;99.90
18317;DHT22;9284;52.298;21.164;2022-07-03T16:57:21;23.50;99.90
18317;DHT22;9284;52.298;21.164;2022-07-03T16:59:51;23.50;99.90
18317;DHT22;9284;52.298;21.164;2022-07-03T17:02:20;23.50;99.90
18317;DHT22;9284;52.298;21.164;2022-07-03T17:04:49;23.50;99.90
18317;DHT22;9284;52.298;21.164;2022-07-03T17:07:19;23.40;99.90
18317;DHT22;9284;52.298;21.164;2022-07-03T17:09:47;23.40;99.90
18317;DHT22;9284;52.298;21.164;2022-07-03T17:12:16;23.40;99.90
18317;DHT22;9284;52.298;21.164;2022-07-03T17:14:45;23.40;99.90
18317;DHT22;9284;52.298;21.164;2022-07-03T17:17:15;23.30;99.90
18317;DHT22;9284;52.298;21.164;2022-07-03T17:19:52;23.30;99.90
18317;DHT22;9284;52.298;21.164;2022-07-03T17:22:23;23.20;99.90
18317;DHT22;9284;52.298;21.164;2022-07-03T17:24:56;23.10;99.90
18317;DHT22;9284;52.298;21.164;2022-07-03T17:27:28;23.10;99.90
18317;DHT22;9284;52.298;21.164;2022-07-03T17:30:06;23.20;99.90
18317;DHT22;9284;52.298;21.164;2022-07-03T17:32:40;23.00;99.90
18317;DHT22;9284;52.298;21.164;2022-07-03T17:35:17;23.00;99.90
18317;DHT22;9284;52.298;21.164;2022-07-03T17:37:47;23.00;99.90
18317;DHT22;9284;52.298;21.164;2022-07-03T17:40:17;22.90;99.90
18317;DHT22;9284;52.298;21.164;2022-07-03T17:42:45;22.90;99.90
18317;DHT22;9284;52.298;21.164;2022-07-03T17:45:20;22.90;99.90
18317;DHT22;9284;52.298;21.164;2022-07-03T17:47:49;22.90;99.90
18317;DHT22;9284;52.298;21.164;2022-07-03T17:50:18;22.90;99.90
18317;DHT22;9284;52.298;21.164;2022-07-03T17:52:47;22.90;99.90
18317;DHT22;9284;52.298;21.164;2022-07-03T17:55:17;22.90;99.90
18317;DHT22;9284;52.298;21.164;2022-07-03T17:57:45;23.10;99.90
18317;DHT22;9284;52.298;21.164;2022-07-03T18:00:17;23.00;99.90
18317;DHT22;9284;52.298;21.164;2022-07-03T18:02:48;22.90;99.90
18317;DHT22;9284;52.298;21.164;2022-07-03T18:05:17;22.90;99.90
18317;DHT22;9284;52.298;21.164;2022-07-03T18:07:49;22.90;99.90
18317;DHT22;9284;52.298;21.164;2022-07-03T18:10:24;22.80;99.90
18317;DHT22;9284;52.298;21.164;2022-07-03T18:13:07;22.80;99.90
18317;DHT22;9284;52.298;21.164;2022-07-03T18:15:39;22.60;99.90
18317;DHT22;9284;52.298;21.164;2022-07-03T18:18:17;22.70;99.90
18317;DHT22;9284;52.298;21.164;2022-07-03T18:20:49;22.70;99.90
18317;DHT22;9284;52.298;21.164;2022-07-03T18:23:19;22.60;99.90
18317;DHT22;9284;52.298;21.164;2022-07-03T18:25:49;22.60;99.90
18317;DHT22;9284;52.298;21.164;2022-07-03T18:28:17;22.50;99.90
18317;DHT22;9284;52.298;21.164;2022-07-03T18:30:45;22.40;99.90
18317;DHT22;9284;52.298;21.164;2022-07-03T18:33:16;22.30;99.90
18317;DHT22;9284;52.298;21.164;2022-07-03T18:35:47;22.20;99.90
18317;DHT22;9284;52.298;21.164;2022-07-03T18:38:17;22.10;99.90
18317;DHT22;9284;52.298;21.164;2022-07-03T18:40:45;22.00;99.90
18317;DHT22;9284;52.298;21.164;2022-07-03T18:43:14;21.90;99.90
18317;DHT22;9284;52.298;21.164;2022-07-03T18:45:43;21.80;99.90
18317;DHT22;9284;52.298;21.164;2022-07-03T18:48:13;21.70;99.90
18317;DHT22;9284;52.298;21.164;2022-07-03T18:50:46;21.60;99.90
18317;DHT22;9284;52.298;21.164;2022-07-03T18:53:20;21.60;99.90
18317;DHT22;9284;52.298;21.164;2022-07-03T18:56:02;21.50;99.90
18317;DHT22;9284;52.298;21.164;2022-07-03T18:58:38;21.40;99.90
18317;DHT22;9284;52.298;21.164;2022-07-03T19:01:09;21.30;99.90
18317;DHT22;9284;52.298;21.164;2022-07-03T19:03:47;21.20;99.90
18317;DHT22;9284;52.298;21.164;2022-07-03T19:06:20;21.10;99.90
18317;DHT22;9284;52.298;21.164;2022-07-03T19:08:54;21.00;99.90
18317;DHT22;9284;52.298;21.164;2022-07-03T19:11:32;20.90;99.90